Time;durP1;ratioP1;P1;durP2;ratioP2;P2;SDS_P1;SDS_P2;PMS_P1;PMS_P2;Temp;Humidity;BMP_temperature;BMP_pressure;BME280_temperature;BME280_humidity;BME280_pressure;Samples;Min_cycle;Max_cycle;Signal;HPM_P1;HPM_P2
2020/12/06 00:00:04;;;;;;;38.63;18.23;;;;;;;5.54;93.53;99930.72;4993897;28;20030;-85
2020/12/06 00:02:29;;;;;;;35.00;17.67;;;;;;;5.52;93.52;99921.13;4976518;28;20034;-82
2020/12/06 00:04:55;;;;;;;33.33;16.80;;;;;;;5.46;93.66;99924.91;4976196;28;20049;-82
2020/12/06 00:07:20;;;;;;;35.05;17.55;;;;;;;5.39;93.53;99910.22;4976581;28;20118;-77
2020/12/06 00:09:46;;;;;;;37.55;17.90;;;;;;;5.46;93.75;99922.25;4993771;28;20037;-79
2020/12/06 00:12:11;;;;;;;37.90;18.73;;;;;;;5.23;94.14;99888.06;4975940;28;20092;-78
2020/12/06 00:14:36;;;;;;;38.50;19.00;;;;;;;5.13;94.04;99877.88;4959892;28;20472;-78
2020/12/06 00:17:02;;;;;;;33.22;17.05;;;;;;;5.27;94.75;99911.63;4993471;28;20034;-78
2020/12/06 00:19:27;;;;;;;35.58;17.55;;;;;;;5.32;94.68;99906.16;4993953;28;20035;-78
2020/12/06 00:21:52;;;;;;;36.03;17.73;;;;;;;5.33;94.95;99921.09;4976016;28;20034;-80
2020/12/06 00:24:20;;;;;;;37.20;17.63;;;;;;;5.24;94.76;99909.13;4993541;28;20030;-81
2020/12/06 00:26:45;;;;;;;32.50;16.42;;;;;;;5.07;95.28;99891.34;4975968;28;20035;-79
2020/12/06 00:29:11;;;;;;;32.80;17.55;;;;;;;5.20;95.07;99911.97;4960082;28;20038;-79
2020/12/06 00:31:36;;;;;;;35.45;17.75;;;;;;;5.08;94.97;99871.06;4993537;28;20479;-79
2020/12/06 00:34:02;;;;;;;39.20;17.25;;;;;;;5.14;94.71;99876.94;4975945;28;20133;-79
2020/12/06 00:36:27;;;;;;;35.33;16.73;;;;;;;5.46;94.83;99930.19;4993657;28;20030;-80
2020/12/06 00:38:52;;;;;;;34.90;16.27;;;;;;;5.35;94.85;99921.88;4993112;28;20498;-79
2020/12/06 00:41:19;;;;;;;32.92;16.17;;;;;;;5.50;95.24;99929.16;4943924;28;20459;-79
2020/12/06 00:43:45;;;;;;;38.90;17.35;;;;;;;5.28;94.12;99899.25;4976388;28;20042;-79
2020/12/06 00:46:11;;;;;;;31.50;16.95;;;;;;;5.18;94.47;99922.59;4993143;28;20038;-78
2020/12/06 00:48:36;;;;;;;31.02;16.80;;;;;;;5.28;95.08;99937.16;4976012;28;20043;-78
2020/12/06 00:51:02;;;;;;;33.90;16.17;;;;;;;5.42;94.87;99936.56;4975579;28;20060;-78
2020/12/06 00:53:28;;;;;;;33.72;16.88;;;;;;;5.38;94.40;99932.31;4993103;28;20060;-77
2020/12/06 00:55:53;;;;;;;29.10;15.23;;;;;;;5.31;94.53;99920.31;4975551;28;20038;-78
2020/12/06 00:58:19;;;;;;;34.20;17.13;;;;;;;5.42;94.81;99921.56;4993380;28;20041;-78
2020/12/06 01:00:45;;;;;;;36.70;17.00;;;;;;;5.46;94.67;99933.69;4993642;28;20380;-80
2020/12/06 01:03:11;;;;;;;33.22;15.23;;;;;;;5.36;94.70;99918.31;4975998;28;20057;-79
2020/12/06 01:05:37;;;;;;;33.90;16.00;;;;;;;5.33;94.76;99923.75;4993146;28;20476;-79
2020/12/06 01:08:03;;;;;;;32.95;16.17;;;;;;;5.20;95.22;99901.38;4959382;28;20030;-78
2020/12/06 01:10:28;;;;;;;34.63;17.35;;;;;;;5.21;95.05;99906.63;4976039;28;20080;-79
2020/12/06 01:12:54;;;;;;;29.35;15.68;;;;;;;5.32;94.57;99911.44;4975657;28;20035;-79
2020/12/06 01:15:19;;;;;;;35.92;17.08;;;;;;;5.35;94.53;99937.75;4993186;28;20035;-78
2020/12/06 01:17:45;;;;;;;34.38;16.63;;;;;;;5.08;95.00;99877.19;4975816;28;20456;-77
2020/12/06 01:20:10;;;;;;;32.80;17.02;;;;;;;5.17;95.25;99934.97;4975976;28;20803;-77
2020/12/06 01:22:36;;;;;;;32.53;17.13;;;;;;;4.85;95.68;99895.84;4993250;28;20042;-78
2020/12/06 01:25:03;;;;;;;33.75;16.13;;;;;;;5.05;96.28;99940.78;4976029;28;20042;-78
2020/12/06 01:27:28;;;;;;;31.38;16.60;;;;;;;5.06;96.22;99939.00;4996904;28;20063;-78
2020/12/06 01:29:54;;;;;;;31.95;15.90;;;;;;;4.92;96.26;99922.84;4979122;28;20034;-78
2020/12/06 01:32:19;;;;;;;35.85;16.90;;;;;;;4.94;96.21;99921.03;4996856;28;20383;-79
2020/12/06 01:34:45;;;;;;;33.17;16.38;;;;;;;4.85;96.01;99938.97;4979274;28;20507;-82
2020/12/06 01:37:10;;;;;;;30.10;15.65;;;;;;;4.85;96.10;99893.19;4978855;28;20124;-79
2020/12/06 01:39:36;;;;;;;32.72;16.10;;;;;;;5.03;95.62;99915.34;4996306;28;20460;-78
2020/12/06 01:42:01;;;;;;;32.20;15.52;;;;;;;5.07;95.77;99923.06;4996012;28;20495;-78
2020/12/06 01:44:28;;;;;;;32.50;15.07;;;;;;;5.27;95.78;99931.94;4996286;28;20500;-80
2020/12/06 01:46:54;;;;;;;29.17;15.13;;;;;;;5.23;95.50;99927.72;4996072;28;20039;-78
2020/12/06 01:49:21;;;;;;;28.80;15.20;;;;;;;5.21;94.85;99918.97;4979105;28;20045;-79
2020/12/06 01:51:55;;;;;;;28.38;15.02;;;;;;;5.01;94.85;99888.97;4996280;28;20490;-79
2020/12/06 01:54:22;;;;;;;32.50;15.75;;;;;;;5.18;94.69;99920.81;4978988;28;20430;-79
2020/12/06 01:56:48;;;;;;;28.25;14.65;;;;;;;5.07;95.03;99891.34;4978768;28;20038;-79
2020/12/06 01:59:13;;;;;;;26.23;14.43;;;;;;;5.30;94.91;99913.28;4995881;28;20034;-80
2020/12/06 02:01:41;;;;;;;32.35;15.20;;;;;;;5.21;94.41;99893.41;4978757;28;20177;-80
2020/12/06 02:04:07;;;;;;;31.13;15.18;;;;;;;5.22;94.84;99905.69;4978521;28;20039;-80
2020/12/06 02:06:33;;;;;;;30.80;14.68;;;;;;;5.28;94.69;99910.69;4995852;28;20041;-80
2020/12/06 02:08:58;;;;;;;27.92;14.52;;;;;;;5.08;94.76;99871.91;4995704;28;20042;-79
2020/12/06 02:11:29;;;;;;;29.60;14.63;;;;;;;5.38;94.53;99908.50;4995901;28;20030;-80
2020/12/06 02:13:54;;;;;;;29.30;14.07;;;;;;;5.06;94.26;99868.47;4978808;28;20053;-77
2020/12/06 02:16:20;;;;;;;30.25;15.75;;;;;;;5.25;94.48;99899.41;4978545;28;20069;-78
2020/12/06 02:18:46;;;;;;;30.10;14.30;;;;;;;5.17;94.70;99892.66;4995872;28;20046;-77
2020/12/06 02:21:11;;;;;;;33.42;14.93;;;;;;;5.28;94.77;99909.84;4995320;28;20041;-77
2020/12/06 02:23:36;;;;;;;32.40;14.50;;;;;;;5.24;94.88;99882.69;4978012;28;20034;-77
2020/12/06 02:26:02;;;;;;;29.13;14.20;;;;;;;5.30;94.84;99894.75;4995280;28;20030;-77
2020/12/06 02:28:27;;;;;;;28.17;14.65;;;;;;;5.25;94.37;99889.69;4978311;28;20476;-77
2020/12/06 02:30:53;;;;;;;27.08;14.00;;;;;;;5.24;94.61;99881.84;4978237;28;20373;-76
2020/12/06 02:33:19;;;;;;;29.63;14.35;;;;;;;5.17;95.02;99871.50;4994860;28;20038;-77
2020/12/06 02:35:44;;;;;;;30.05;14.25;;;;;;;5.07;94.95;99851.69;4961585;28;20483;-76
2020/12/06 02:38:10;;;;;;;29.05;14.23;;;;;;;5.11;94.94;99892.91;4995203;28;20089;-78
2020/12/06 02:40:36;;;;;;;28.25;14.35;;;;;;;4.78;95.47;99865.31;4962433;28;20062;-77
2020/12/06 02:43:01;;;;;;;29.00;14.90;;;;;;;4.88;95.94;99901.84;4995380;28;20459;-78
2020/12/06 02:45:27;;;;;;;28.75;13.75;;;;;;;4.61;96.33;99871.28;4961801;28;20129;-78
2020/12/06 02:47:52;;;;;;;27.73;14.05;;;;;;;4.64;96.61;99904.69;4977827;28;20033;-87
2020/12/06 02:50:18;;;;;;;29.75;15.40;;;;;;;4.36;96.67;99854.75;4961054;28;20030;-82
2020/12/06 02:52:43;;;;;;;31.45;15.25;;;;;;;4.79;97.20;99914.59;4995010;28;20138;-81
2020/12/06 02:55:09;;;;;;;27.30;14.13;;;;;;;4.68;97.15;99915.03;4994817;28;20088;-78
2020/12/06 02:57:34;;;;;;;30.90;14.65;;;;;;;4.64;97.20;99913.47;4961819;28;20034;-78
2020/12/06 03:00:00;;;;;;;31.40;14.93;;;;;;;4.66;97.19;99900.19;4994536;28;20116;-78
2020/12/06 03:02:25;;;;;;;30.25;14.25;;;;;;;4.85;96.74;99898.50;4994874;28;20381;-79
2020/12/06 03:04:50;;;;;;;28.13;14.57;;;;;;;4.96;96.95;99917.38;4995122;28;20365;-80
2020/12/06 03:07:16;;;;;;;30.50;14.13;;;;;;;5.02;96.70;99911.84;4960585;28;20129;-80
2020/12/06 03:09:42;;;;;;;28.98;14.18;;;;;;;4.84;96.40;99875.63;4994702;28;20049;-80
2020/12/06 03:12:08;;;;;;;30.92;14.15;;;;;;;5.10;96.17;99916.78;4994465;28;20026;-77
2020/12/06 03:14:33;;;;;;;27.48;13.52;;;;;;;5.15;95.82;99913.03;4945628;28;20052;-76
2020/12/06 03:16:58;;;;;;;26.90;13.65;;;;;;;5.30;95.42;99919.41;4977052;28;20030;-77
2020/12/06 03:19:24;;;;;;;26.55;12.88;;;;;;;5.39;94.30;99897.00;4977366;28;20474;-77
2020/12/06 03:21:49;;;;;;;27.95;14.00;;;;;;;5.45;93.70;99920.53;4977085;28;20037;-81
2020/12/06 03:24:15;;;;;;;26.75;13.77;;;;;;;5.33;93.38;99870.84;4977051;28;20045;-81
2020/12/06 03:26:40;;;;;;;23.85;12.90;;;;;;;5.52;93.32;99889.41;4994477;28;20030;-80
2020/12/06 03:29:05;;;;;;;24.40;12.40;;;;;;;5.27;92.77;99858.75;4960469;28;20034;-80
2020/12/06 03:31:31;;;;;;;25.70;13.65;;;;;;;5.48;93.08;99907.16;4961071;28;20042;-81
2020/12/06 03:33:56;;;;;;;26.83;13.38;;;;;;;5.35;93.50;99911.31;4977065;28;20450;-80
2020/12/06 03:36:22;;;;;;;25.13;12.77;;;;;;;5.35;93.86;99912.16;4993934;28;20042;-81
2020/12/06 03:38:48;;;;;;;27.17;13.70;;;;;;;5.44;93.59;99911.75;4976830;28;20058;-80
2020/12/06 03:41:13;;;;;;;28.50;13.50;;;;;;;5.07;93.66;99849.06;4960713;28;20034;-75
2020/12/06 03:43:39;;;;;;;27.95;13.77;;;;;;;5.39;93.40;99878.47;4977279;28;20392;-77
2020/12/06 03:46:04;;;;;;;25.52;12.98;;;;;;;5.30;93.38;99886.81;4976724;28;20526;-78
2020/12/06 03:48:29;;;;;;;28.45;13.45;;;;;;;5.39;93.76;99897.00;4976319;28;20551;-77
2020/12/06 03:50:55;;;;;;;26.88;13.18;;;;;;;5.47;93.81;99897.53;4993864;28;20125;-77
2020/12/06 03:53:20;;;;;;;27.52;13.20;;;;;;;5.53;93.51;99891.09;4976373;28;20502;-78
2020/12/06 03:55:46;;;;;;;26.65;13.07;;;;;;;5.47;93.22;99871.06;4976728;28;20121;-74
2020/12/06 03:58:14;;;;;;;24.60;12.88;;;;;;;5.46;93.01;99888.72;4993724;28;20121;-76
2020/12/06 04:00:39;;;;;;;25.92;12.43;;;;;;;5.53;93.24;99889.31;4993918;28;20034;-77
2020/12/06 04:03:05;;;;;;;24.90;12.68;;;;;;;5.44;93.35;99885.31;4993442;28;20042;-78
2020/12/06 04:05:30;;;;;;;23.77;12.57;;;;;;;5.63;93.41;99890.63;4960391;28;20030;-78
2020/12/06 04:07:56;;;;;;;26.48;12.13;;;;;;;5.63;93.17;99895.06;4944531;28;20042;-77
2020/12/06 04:10:21;;;;;;;26.33;12.90;;;;;;;5.38;93.01;99851.19;4976661;28;20918;-83
2020/12/06 04:12:47;;;;;;;26.52;13.85;;;;;;;5.45;93.31;99871.16;4976423;28;20038;-79
2020/12/06 04:15:12;;;;;;;28.70;13.30;;;;;;;5.50;93.45;99886.81;4993446;28;20026;-78
2020/12/06 04:17:39;;;;;;;24.17;11.90;;;;;;;5.44;93.70;99879.16;4976294;28;20038;-79
2020/12/06 04:20:05;;;;;;;25.13;12.32;;;;;;;5.42;94.01;99881.88;4976078;28;20038;-79
2020/12/06 04:22:30;;;;;;;27.63;12.10;;;;;;;5.41;93.71;99868.72;4976690;28;20069;-81
2020/12/06 04:24:56;;;;;;;26.33;13.38;;;;;;;5.24;93.93;99869.47;4976327;28;20428;-82
2020/12/06 04:27:21;;;;;;;23.88;12.27;;;;;;;5.35;94.21;99883.06;4976056;28;20548;-83
2020/12/06 04:29:47;;;;;;;28.73;12.75;;;;;;;5.02;94.31;99858.97;4976317;28;20042;-82
2020/12/06 04:32:12;;;;;;;25.00;12.27;;;;;;;5.27;94.61;99905.47;4993046;28;20037;-80
2020/12/06 04:34:38;;;;;;;25.60;12.48;;;;;;;5.25;94.64;99899.41;4993435;28;20117;-81
2020/12/06 04:37:05;;;;;;;25.90;12.88;;;;;;;5.05;94.97;99880.00;4993726;28;20038;-80
2020/12/06 04:39:30;;;;;;;28.38;12.27;;;;;;;5.17;94.80;99887.38;4993564;28;20034;-83
2020/12/06 04:41:56;;;;;;;25.48;12.88;;;;;;;5.03;94.71;99858.06;4976231;28;20503;-81
2020/12/06 04:44:21;;;;;;;25.23;12.65;;;;;;;5.28;94.75;99901.91;4993045;28;20475;-79
2020/12/06 04:46:47;;;;;;;24.33;12.40;;;;;;;5.16;94.50;99896.25;4993351;28;20037;-79
2020/12/06 04:49:42;;;;;;;26.65;11.98;;;;;;;5.23;94.72;99891.56;4993234;28;20085;-75
2020/12/06 04:52:13;;;;;;;24.45;12.18;;;;;;;5.23;94.71;99896.84;4993050;28;20507;-79
2020/12/06 04:54:41;;;;;;;25.98;13.18;;;;;;;5.22;94.66;99894.28;4993425;28;20121;-79
2020/12/06 04:57:10;;;;;;;24.48;11.95;;;;;;;4.96;94.58;99861.88;4993076;28;20057;-79
2020/12/06 04:59:41;;;;;;;25.08;12.38;;;;;;;5.18;94.43;99894.38;4994665;28;20026;-83
2020/12/06 05:02:09;;;;;;;23.88;12.05;;;;;;;4.88;94.70;99848.13;4979493;28;20045;-82
2020/12/06 05:04:40;;;;;;;24.02;12.25;;;;;;;5.10;94.33;99891.19;4979723;28;20045;-83
2020/12/06 05:07:05;;;;;;;25.67;11.85;;;;;;;5.12;94.60;99889.38;4979496;28;20527;-78
2020/12/06 05:09:35;;;;;;;23.65;11.75;;;;;;;5.18;94.67;99909.38;4979797;28;20041;-82
2020/12/06 05:12:02;;;;;;;24.33;11.85;;;;;;;4.90;94.75;99870.06;4979706;28;20089;-81
2020/12/06 05:14:28;;;;;;;26.15;12.35;;;;;;;5.17;94.74;99907.66;4996458;28;20113;-81
2020/12/06 05:16:55;;;;;;;22.23;11.20;;;;;;;5.16;94.54;99901.53;4979654;28;20125;-80
2020/12/06 05:19:24;;;;;;;24.08;11.82;;;;;;;4.98;94.62;99875.03;4996429;28;20035;-79
2020/12/06 05:21:50;;;;;;;23.83;11.57;;;;;;;5.06;94.78;99902.84;4996875;28;20042;-79
2020/12/06 05:24:16;;;;;;;22.35;11.95;;;;;;;4.88;94.77;99864.84;4979132;28;20113;-80
2020/12/06 05:26:44;;;;;;;22.25;11.60;;;;;;;5.04;94.45;99891.50;4996564;28;20058;-79
2020/12/06 05:29:11;;;;;;;22.23;11.00;;;;;;;5.09;94.72;99907.13;4978884;28;20030;-78
2020/12/06 05:31:37;;;;;;;26.83;12.75;;;;;;;5.11;94.71;99914.06;4996822;28;20034;-79
2020/12/06 05:34:02;;;;;;;22.88;11.60;;;;;;;5.12;94.49;99909.66;4996791;28;20619;-78
2020/12/06 05:36:28;;;;;;;24.35;12.40;;;;;;;5.04;94.93;99901.22;4996252;28;20396;-84
2020/12/06 05:38:53;;;;;;;24.70;12.25;;;;;;;4.98;94.92;99907.59;4963131;28;20464;-77
2020/12/06 05:41:19;;;;;;;21.55;11.60;;;;;;;5.00;95.09;99896.97;4996342;28;20113;-78
2020/12/06 05:43:44;;;;;;;23.42;12.00;;;;;;;4.94;94.80;99879.59;4996276;28;20165;-78
2020/12/06 05:46:14;;;;;;;24.38;12.35;;;;;;;4.93;94.77;99875.25;4978880;28;20456;-76
2020/12/06 05:48:41;;;;;;;24.50;11.75;;;;;;;4.95;94.46;99878.66;4996785;28;20035;-76
2020/12/06 05:51:07;;;;;;;22.25;11.57;;;;;;;5.12;94.40;99892.03;4996331;28;20058;-85
2020/12/06 05:53:33;;;;;;;21.73;11.23;;;;;;;4.86;94.15;99844.72;4978382;28;20104;-83
2020/12/06 05:56:25;;;;;;;23.33;11.05;;;;;;;5.12;94.21;99884.09;4996113;28;20053;-82
2020/12/06 05:58:52;;;;;;;24.42;11.45;;;;;;;5.20;93.97;99886.38;4993373;28;20412;-81
2020/12/06 06:01:20;;;;;;;21.77;11.70;;;;;;;5.18;93.54;99878.50;4995897;28;20391;-81
2020/12/06 06:03:51;;;;;;;26.73;12.15;;;;;;;5.27;93.66;99886.97;4996028;28;20483;-81
2020/12/06 06:06:34;;;;;;;22.27;11.73;;;;;;;5.34;93.39;99893.72;4978178;28;20034;-81
2020/12/06 06:09:01;;;;;;;20.63;11.13;;;;;;;5.13;93.08;99847.94;4996366;28;20030;-86
2020/12/06 06:11:28;;;;;;;18.95;9.98;;;;;;;5.49;92.94;99898.31;4995093;28;20039;-86
2020/12/06 06:14:03;;;;;;;22.00;10.95;;;;;;;5.53;92.67;99902.53;4978898;28;20031;-87
2020/12/06 06:16:31;;;;;;;23.58;11.15;;;;;;;5.52;92.74;99889.41;4978343;28;20049;-86
2020/12/06 06:18:58;;;;;;;21.55;11.13;;;;;;;5.48;92.26;99891.31;4963399;28;20042;-85
2020/12/06 06:21:39;;;;;;;19.20;10.20;;;;;;;5.57;92.29;99882.94;4978330;28;20042;-86
2020/12/06 06:24:10;;;;;;;21.13;10.57;;;;;;;5.68;91.82;99874.50;4995941;28;20030;-87
2020/12/06 06:26:41;;;;;;;22.48;10.15;;;;;;;5.82;91.82;99895.06;4995669;28;20080;-86
2020/12/06 06:29:13;;;;;;;19.13;10.02;;;;;;;5.86;91.58;99886.03;4995790;28;20034;-81
2020/12/06 06:31:43;;;;;;;18.95;10.35;;;;;;;5.90;91.22;99892.94;4995727;28;20117;-84
2020/12/06 06:34:08;;;;;;;19.15;9.65;;;;;;;5.93;91.24;99898.09;4978580;28;20499;-85
2020/12/06 06:36:35;;;;;;;18.88;9.60;;;;;;;5.92;90.67;99886.66;4977785;28;20070;-85
2020/12/06 06:39:03;;;;;;;20.40;9.68;;;;;;;5.72;91.06;99858.44;4978495;28;20427;-83
2020/12/06 06:41:29;;;;;;;20.77;10.38;;;;;;;6.02;91.08;99892.38;4978204;28;20034;-84
2020/12/06 06:44:03;;;;;;;20.02;9.90;;;;;;;5.92;90.63;99885.81;4978241;28;20121;-83
2020/12/06 06:46:33;;;;;;;22.52;10.23;;;;;;;6.02;90.24;99892.38;4977896;28;20399;-76
2020/12/06 06:49:07;;;;;;;18.65;9.82;;;;;;;5.90;90.65;99883.22;4977545;28;20088;-83
2020/12/06 06:51:33;;;;;;;18.92;9.23;;;;;;;5.85;89.99;99864.00;4994783;28;20073;-85
2020/12/06 06:54:04;;;;;;;18.13;10.02;;;;;;;6.01;90.00;99901.25;4995086;28;20026;-77
2020/12/06 06:56:30;;;;;;;18.70;9.73;;;;;;;5.97;89.80;99897.00;4977213;28;20030;-87
2020/12/06 06:58:58;;;;;;;18.08;10.27;;;;;;;6.11;90.12;99923.72;4995335;28;20042;-85
2020/12/06 07:01:24;;;;;;;17.02;9.20;;;;;;;6.21;89.50;99919.72;4977670;28;20495;-88
2020/12/06 07:03:54;;;;;;;19.10;9.52;;;;;;;6.00;89.27;99875.72;4962197;28;20042;-89
2020/12/06 07:06:48;;;;;;;16.33;8.80;;;;;;;6.34;89.06;99924.41;4995641;28;20534;-83
2020/12/06 07:09:29;;;;;;;15.50;8.88;;;;;;;6.42;88.54;99924.91;4995091;28;20545;-77
2020/12/06 07:11:56;;;;;;;18.73;9.88;;;;;;;6.14;88.12;99864.44;4994635;28;20173;-81
2020/12/06 07:14:24;;;;;;;19.85;9.98;;;;;;;6.49;88.16;99915.72;4994502;28;20038;-84
2020/12/06 07:16:51;;;;;;;16.92;9.23;;;;;;;6.42;88.36;99912.53;4977249;28;20033;-80
2020/12/06 07:19:16;;;;;;;20.58;9.85;;;;;;;6.48;87.73;99906.06;4995270;28;20045;-81
2020/12/06 07:21:42;;;;;;;19.00;9.65;;;;;;;6.42;87.74;99885.16;4977421;28;20454;-81
2020/12/06 07:24:08;;;;;;;19.55;9.77;;;;;;;6.67;87.08;99917.50;4960356;28;20046;-81
2020/12/06 07:26:33;;;;;;;17.55;9.63;;;;;;;6.75;86.96;99914.44;4976936;28;20035;-83
2020/12/06 07:28:59;;;;;;;17.95;9.75;;;;;;;6.76;86.85;99913.53;4961011;28;20093;-84
2020/12/06 07:31:26;;;;;;;22.33;9.63;;;;;;;6.76;86.32;99913.53;4977194;28;20053;-86
2020/12/06 07:33:51;;;;;;;18.25;9.40;;;;;;;6.86;86.43;99936.84;4994567;28;20035;-89
2020/12/06 07:36:17;;;;;;;16.70;9.02;;;;;;;6.91;86.08;99931.31;4960949;28;20034;-80
2020/12/06 07:38:43;;;;;;;17.38;9.15;;;;;;;6.89;85.56;99911.97;4976847;28;20031;-79
2020/12/06 07:41:09;;;;;;;18.70;9.68;;;;;;;7.03;85.43;99940.44;4976856;28;20034;-81
2020/12/06 07:43:34;;;;;;;17.65;9.75;;;;;;;7.04;85.49;99926.22;4994196;28;20038;-83
2020/12/06 07:46:18;;;;;;;18.33;9.98;;;;;;;6.98;85.61;99927.41;4961501;28;20037;-84
2020/12/06 07:48:44;;;;;;;;;;;;;;;7.08;84.79;99922.50;4995146;28;20113;-79
2020/12/06 07:51:10;;;;;;;18.00;9.52;;;;;;;7.01;85.35;99916.63;4996369;28;19918;-84
2020/12/06 07:53:50;;;;;;;18.65;9.63;;;;;;;7.12;85.21;99924.91;4976238;28;20035;-78
2020/12/06 07:56:19;;;;;;;19.77;10.18;;;;;;;7.07;85.45;99910.19;4976668;28;20512;-78
2020/12/06 07:59:02;;;;;;;16.65;9.70;;;;;;;7.16;84.92;99917.66;4993903;28;20033;-82
2020/12/06 08:01:27;;;;;;;16.52;9.27;;;;;;;7.28;84.07;99924.97;4985638;28;20490;-80
2020/12/06 08:03:56;;;;;;;18.08;9.73;;;;;;;7.34;84.42;99924.69;4979643;28;20038;-82
2020/12/06 08:06:25;;;;;;;18.63;10.35;;;;;;;7.56;84.21;99926.19;4993646;28;20034;-78
2020/12/06 08:08:57;;;;;;;18.38;10.30;;;;;;;7.71;83.57;99922.72;4976346;28;20121;-78
2020/12/06 08:11:30;;;;;;;16.17;8.50;;;;;;;7.71;82.41;99912.94;4993686;28;20065;-76
2020/12/06 08:13:55;;;;;;;18.20;8.27;;;;;;;7.90;82.59;99909.28;4976609;28;20030;-80
2020/12/06 08:16:21;;;;;;;16.70;9.32;;;;;;;7.87;82.92;99907.69;4992996;28;20395;-78
2020/12/06 08:18:57;;;;;;;13.80;8.48;;;;;;;7.87;82.27;99907.69;4959383;28;20034;-74
2020/12/06 08:21:22;;;;;;;13.77;8.00;;;;;;;7.85;82.75;99912.22;4993133;28;20030;-78
2020/12/06 08:23:48;;;;;;;16.38;8.27;;;;;;;7.86;82.27;99908.63;4975729;28;20176;-76
2020/12/06 08:26:13;;;;;;;13.63;7.40;;;;;;;7.82;82.37;99898.25;4976313;28;20491;-82
2020/12/06 08:28:39;;;;;;;13.60;7.55;;;;;;;7.73;82.42;99894.31;4959904;28;20035;-79
2020/12/06 08:31:20;;;;;;;13.38;7.45;;;;;;;7.69;82.41;99908.66;4993565;28;20606;-80
2020/12/06 08:33:45;;;;;;;15.38;7.75;;;;;;;7.58;82.82;99903.94;4994369;28;20038;-82
2020/12/06 08:36:22;;;;;;;15.50;7.90;;;;;;;7.50;83.04;99913.25;4982518;28;20038;-81
2020/12/06 08:38:47;;;;;;;15.27;8.30;;;;;;;7.21;83.45;99867.88;4999458;28;20169;-76
2020/12/06 08:41:13;;;;;;;17.15;8.57;;;;;;;7.39;83.86;99911.16;5000322;28;20566;-77
2020/12/06 08:43:41;;;;;;;17.45;8.48;;;;;;;7.42;83.77;99913.63;4999688;28;20049;-78
2020/12/06 08:46:08;;;;;;;15.98;8.20;;;;;;;7.28;83.57;99885.19;4982624;28;20472;-77
2020/12/06 08:48:34;;;;;;;13.70;7.35;;;;;;;7.49;83.24;99900.91;4999844;28;20041;-80
2020/12/06 08:50:59;;;;;;;16.55;8.30;;;;;;;7.56;82.80;99904.97;4982034;28;20053;-76
2020/12/06 08:53:25;;;;;;;15.27;7.82;;;;;;;7.64;82.79;99897.47;4982252;28;20030;-75
2020/12/06 08:55:50;;;;;;;15.32;8.45;;;;;;;7.62;82.83;99896.66;4982660;28;20032;-77
2020/12/06 08:58:28;;;;;;;16.55;8.23;;;;;;;7.57;82.71;99880.13;4999945;28;20062;-76
2020/12/06 09:01:01;;;;;;;18.27;8.48;;;;;;;7.68;82.61;99885.72;4999703;28;20046;-77
2020/12/06 09:03:27;;;;;;;13.33;7.03;;;;;;;7.45;82.48;99845.34;4982127;28;20492;-80
2020/12/06 09:05:52;;;;;;;13.15;7.30;;;;;;;7.67;82.61;99879.56;4999842;28;20331;-80
2020/12/06 09:08:17;;;;;;;17.25;8.10;;;;;;;7.67;82.79;99868.06;4982490;28;20030;-80
2020/12/06 09:10:43;;;;;;;16.80;8.35;;;;;;;7.68;82.94;99870.66;4982172;28;20056;-78
2020/12/06 09:13:08;;;;;;;17.13;9.18;;;;;;;7.71;82.66;99862.50;4966042;28;20030;-76
2020/12/06 09:15:33;;;;;;;16.08;8.48;;;;;;;7.74;82.87;99864.16;4999465;28;20037;-76
2020/12/06 09:17:59;;;;;;;14.25;7.95;;;;;;;7.75;82.49;99855.25;4999404;28;20554;-75
2020/12/06 09:20:24;;;;;;;14.25;7.78;;;;;;;7.50;82.01;99799.97;4981735;28;20038;-78
2020/12/06 09:22:50;;;;;;;16.10;8.93;;;;;;;7.80;82.15;99839.91;4978725;28;20030;-76
2020/12/06 09:25:15;;;;;;;17.38;8.15;;;;;;;7.92;82.20;99852.53;4999450;28;20121;-74
2020/12/06 09:27:41;;;;;;;15.48;8.00;;;;;;;7.98;81.67;99849.50;4998982;28;20045;-77
2020/12/06 09:30:06;;;;;;;17.83;8.02;;;;;;;7.90;81.61;99817.22;4981220;28;20049;-72
2020/12/06 09:32:31;;;;;;;17.20;8.73;;;;;;;8.11;81.28;99830.25;4981002;28;20038;-75
2020/12/06 09:34:57;;;;;;;15.82;8.35;;;;;;;7.98;80.17;99798.19;4998895;28;20035;-74
2020/12/06 09:37:22;;;;;;;15.23;8.45;;;;;;;8.12;80.85;99821.34;4980530;28;20395;-74
2020/12/06 09:39:48;;;;;;;16.90;8.38;;;;;;;7.99;80.64;99792.78;4981597;28;20135;-76
2020/12/06 09:42:13;;;;;;;15.55;8.10;;;;;;;8.23;80.63;99840.16;4964944;28;20042;-78
2020/12/06 09:44:38;;;;;;;18.75;7.93;;;;;;;8.22;80.47;99815.41;4981448;28;20150;-78
2020/12/06 09:47:04;;;;;;;18.02;9.10;;;;;;;8.30;80.51;99831.78;4977264;28;20059;-74
2020/12/06 09:49:29;;;;;;;17.77;8.68;;;;;;;8.33;80.68;99828.94;4995046;28;20038;-77
2020/12/06 09:51:55;;;;;;;19.60;8.90;;;;;;;8.46;80.48;99826.44;4994968;28;20471;-77
2020/12/06 09:54:20;;;;;;;16.80;7.75;;;;;;;8.50;79.80;99817.34;4976958;28;20041;-76
2020/12/06 09:56:46;;;;;;;14.63;7.45;;;;;;;8.51;79.75;99819.06;4994893;28;20403;-74
2020/12/06 09:59:11;;;;;;;14.60;7.68;;;;;;;8.49;79.83;99815.66;4995416;28;20092;-75
2020/12/06 10:01:39;;;;;;;13.43;7.88;;;;;;;8.43;79.65;99793.88;4977645;28;20145;-75
2020/12/06 10:04:04;;;;;;;17.85;7.75;;;;;;;8.48;79.34;99795.31;4995484;28;20031;-77
2020/12/06 10:06:32;;;;;;;13.80;8.13;;;;;;;8.54;79.55;99797.59;4993019;28;20407;-74
2020/12/06 10:08:58;;;;;;;15.13;8.10;;;;;;;8.45;79.19;99779.53;4994837;28;20044;-73
2020/12/06 10:11:24;;;;;;;17.42;8.23;;;;;;;8.30;79.59;99741.41;4995461;28;20038;-82
2020/12/06 10:13:50;;;;;;;15.40;7.90;;;;;;;8.32;79.35;99749.31;4994910;28;20038;-82
2020/12/06 10:16:17;;;;;;;16.23;8.25;;;;;;;8.49;79.95;99777.56;4962187;28;20096;-78
2020/12/06 10:18:43;;;;;;;15.40;8.60;;;;;;;8.42;80.40;99776.22;4977159;28;20050;-78
2020/12/06 10:21:11;;;;;;;15.60;7.78;;;;;;;8.10;79.73;99722.25;4969585;28;20402;-83
2020/12/06 10:23:37;;;;;;;16.17;8.20;;;;;;;8.32;80.15;99754.63;4994472;28;20476;-79
2020/12/06 10:26:02;;;;;;;15.80;8.13;;;;;;;8.37;80.32;99752.56;4994927;28;20038;-78
2020/12/06 10:28:28;;;;;;;15.40;7.45;;;;;;;8.30;80.26;99740.56;4977088;28;20045;-78
2020/12/06 10:30:53;;;;;;;13.50;7.82;;;;;;;8.30;80.59;99745.88;4994394;28;20419;-78
2020/12/06 10:33:19;;;;;;;16.80;7.28;;;;;;;8.40;80.45;99747.09;4994479;28;20778;-78
2020/12/06 10:35:44;;;;;;;17.25;8.38;;;;;;;8.37;80.81;99741.94;4977004;28;20057;-76
2020/12/06 10:38:12;;;;;;;16.73;7.95;;;;;;;8.50;80.62;99748.25;4960358;28;20494;-79
2020/12/06 10:40:39;;;;;;;14.02;7.25;;;;;;;8.51;80.52;99757.94;4961109;28;20031;-80
2020/12/06 10:43:04;;;;;;;16.33;8.90;;;;;;;8.48;80.93;99747.47;4977044;28;20034;-77
2020/12/06 10:45:30;;;;;;;21.70;9.15;;;;;;;8.54;80.81;99746.25;4977046;28;20121;-78
2020/12/06 10:47:55;;;;;;;14.43;7.82;;;;;;;8.59;80.55;99730.91;4960565;28;20038;-79
2020/12/06 10:50:21;;;;;;;19.08;8.60;;;;;;;8.46;80.70;99704.16;4993651;28;20050;-80
2020/12/06 10:52:46;;;;;;;15.73;7.78;;;;;;;8.57;80.05;99701.72;4988212;28;20054;-81
2020/12/06 10:55:12;;;;;;;15.30;8.38;;;;;;;8.94;79.74;99757.97;4994354;28;20034;-81
2020/12/06 10:57:37;;;;;;;16.58;8.00;;;;;;;8.92;79.49;99735.09;4999933;28;20480;-77
2020/12/06 11:00:05;;;;;;;14.55;8.45;;;;;;;8.83;79.55;99704.59;4976473;28;20049;-79
2020/12/06 11:02:31;;;;;;;16.98;8.02;;;;;;;9.09;79.30;99730.44;4976580;28;20077;-78
2020/12/06 11:04:57;;;;;;;14.73;7.47;;;;;;;9.16;78.88;99745.06;4995201;28;20419;-84
2020/12/06 11:07:22;;;;;;;14.13;7.75;;;;;;;9.05;78.83;99728.91;4961916;28;20048;-81
2020/12/06 11:09:48;;;;;;;14.82;7.82;;;;;;;9.14;79.03;99722.16;4978208;28;20040;-83
2020/12/06 11:12:13;;;;;;;13.70;7.35;;;;;;;9.26;78.37;99709.88;4993951;28;20030;-79
2020/12/06 11:14:39;;;;;;;15.95;8.18;;;;;;;9.12;78.60;99686.81;4993618;28;20026;-77
2020/12/06 11:17:04;;;;;;;15.98;8.45;;;;;;;9.36;78.45;99714.56;4975946;28;20173;-75
2020/12/06 11:19:29;;;;;;;14.18;7.45;;;;;;;9.36;78.36;99706.56;4960079;28;20496;-78
2020/12/06 11:21:55;;;;;;;13.38;7.68;;;;;;;9.40;77.95;99702.75;4993504;28;20508;-78
2020/12/06 11:24:20;;;;;;;17.77;9.32;;;;;;;9.30;77.60;99677.69;4976439;28;20041;-78
2020/12/06 11:26:46;;;;;;;15.57;7.97;;;;;;;9.59;77.65;99707.75;4975806;28;20480;-75